sensor_id;sensor_type;location;lat;lon;timestamp;pressure;altitude;pressure_sealevel;temperature;humidity
14041;BME280;7095;51.388;6.196;2022-11-25T00:01:37;59504.38;;;-145.32;100.00
14041;BME280;7095;51.388;6.196;2022-11-25T00:04:06;59564.13;;;-145.32;100.00
14041;BME280;7095;51.388;6.196;2022-11-25T00:06:35;59424.72;;;-145.32;100.00
14041;BME280;7095;51.388;6.196;2022-11-25T00:09:05;59546.22;;;-145.32;100.00
14041;BME280;7095;51.388;6.196;2022-11-25T00:11:37;59548.19;;;-145.32;100.00
14041;BME280;7095;51.388;6.196;2022-11-25T00:14:09;59926.63;;;-145.32;100.00
14041;BME280;7095;51.388;6.196;2022-11-25T00:16:38;59970.44;;;-145.32;100.00
14041;BME280;7095;51.388;6.196;2022-11-25T00:19:14;59890.78;;;-145.32;100.00
14041;BME280;7095;51.388;6.196;2022-11-25T00:21:43;59886.78;;;-145.32;100.00
14041;BME280;7095;51.388;6.196;2022-11-25T00:24:14;59735.41;;;-145.32;100.00
14041;BME280;7095;51.388;6.196;2022-11-25T00:26:44;60006.31;;;-145.32;100.00
14041;BME280;7095;51.388;6.196;2022-11-25T00:29:12;59821.06;;;-145.32;100.00
14041;BME280;7095;51.388;6.196;2022-11-25T00:31:43;60082.00;;;-145.32;100.00
14041;BME280;7095;51.388;6.196;2022-11-25T00:34:13;60245.34;;;-145.32;100.00
14041;BME280;7095;51.388;6.196;2022-11-25T00:36:41;59831.03;;;-145.32;100.00
14041;BME280;7095;51.388;6.196;2022-11-25T00:39:11;60133.78;;;-145.32;100.00
14041;BME280;7095;51.388;6.196;2022-11-25T00:41:41;59870.84;;;-145.32;100.00
14041;BME280;7095;51.388;6.196;2022-11-25T00:44:28;60520.25;;;-145.32;100.00
14041;BME280;7095;51.388;6.196;2022-11-25T00:47:08;60012.28;;;-145.32;100.00
14041;BME280;7095;51.388;6.196;2022-11-25T00:49:39;60372.81;;;-145.32;100.00
14041;BME280;7095;51.388;6.196;2022-11-25T00:52:09;60084.00;;;-145.32;100.00
14041;BME280;7095;51.388;6.196;2022-11-25T00:54:39;60432.59;;;-145.32;100.00
14041;BME280;7095;51.388;6.196;2022-11-25T00:57:08;60305.09;;;-145.32;100.00
14041;BME280;7095;51.388;6.196;2022-11-25T00:59:38;60398.72;;;-145.32;100.00
14041;BME280;7095;51.388;6.196;2022-11-25T01:02:08;60163.66;;;-145.32;100.00
14041;BME280;7095;51.388;6.196;2022-11-25T01:04:38;60247.31;;;-145.32;100.00
14041;BME280;7095;51.388;6.196;2022-11-25T01:07:06;60317.06;;;-145.32;100.00
14041;BME280;7095;51.388;6.196;2022-11-25T01:09:35;60233.38;;;-145.32;100.00
14041;BME280;7095;51.388;6.196;2022-11-25T01:12:06;60155.69;;;-145.32;100.00
14041;BME280;7095;51.388;6.196;2022-11-25T01:14:34;60211.47;;;-145.32;100.00
14041;BME280;7095;51.388;6.196;2022-11-25T01:17:05;60464.47;;;-145.32;100.00
14041;BME280;7095;51.388;6.196;2022-11-25T01:19:34;60436.56;;;-145.32;100.00
14041;BME280;7095;51.388;6.196;2022-11-25T01:22:06;60787.22;;;-145.32;100.00
14041;BME280;7095;51.388;6.196;2022-11-25T01:24:35;60755.34;;;-145.32;100.00
14041;BME280;7095;51.388;6.196;2022-11-25T01:27:04;61109.97;;;-145.32;100.00
14041;BME280;7095;51.388;6.196;2022-11-25T01:29:33;61078.09;;;-145.32;100.00
14041;BME280;7095;51.388;6.196;2022-11-25T01:32:01;61062.16;;;-145.32;100.00
14041;BME280;7095;51.388;6.196;2022-11-25T01:34:32;61337.13;;;-145.32;100.00
14041;BME280;7095;51.388;6.196;2022-11-25T01:37:01;61339.13;;;-145.32;100.00
14041;BME280;7095;51.388;6.196;2022-11-25T01:39:30;61986.81;;;-145.32;100.00
14041;BME280;7095;51.388;6.196;2022-11-25T01:42:00;62064.53;;;-145.32;100.00
14041;BME280;7095;51.388;6.196;2022-11-25T01:44:30;62078.50;;;-145.32;100.00
14041;BME280;7095;51.388;6.196;2022-11-25T01:47:08;62237.94;;;-145.32;100.00
14041;BME280;7095;51.388;6.196;2022-11-25T01:49:42;62030.66;;;-145.32;100.00
14041;BME280;7095;51.388;6.196;2022-11-25T01:52:18;62319.66;;;-145.32;100.00
14041;BME280;7095;51.388;6.196;2022-11-25T01:54:54;62808.03;;;-145.32;100.00
14041;BME280;7095;51.388;6.196;2022-11-25T01:57:26;62463.19;;;-145.32;100.00
14041;BME280;7095;51.388;6.196;2022-11-25T01:59:58;63003.41;;;-145.32;100.00
14041;BME280;7095;51.388;6.196;2022-11-25T02:02:30;62903.72;;;-145.32;100.00
14041;BME280;7095;51.388;6.196;2022-11-25T02:05:03;63310.44;;;-145.32;100.00
14041;BME280;7095;51.388;6.196;2022-11-25T02:07:35;63781.00;;;-145.32;100.00
14041;BME280;7095;51.388;6.196;2022-11-25T02:10:08;64034.28;;;-145.32;100.00
14041;BME280;7095;51.388;6.196;2022-11-25T02:12:43;64622.63;;;-145.32;100.00
14041;BME280;7095;51.388;6.196;2022-11-25T02:15:14;64672.50;;;-145.32;100.00
14041;BME280;7095;51.388;6.196;2022-11-25T02:17:43;65268.94;;;-145.32;100.00
14041;BME280;7095;51.388;6.196;2022-11-25T02:20:16;65931.31;;;-145.32;100.00
14041;BME280;7095;51.388;6.196;2022-11-25T02:22:55;66857.28;;;-145.32;100.00
14041;BME280;7095;51.388;6.196;2022-11-25T02:25:29;67555.91;;;-145.32;100.00
14041;BME280;7095;51.388;6.196;2022-11-25T02:28:00;68590.16;;;-145.32;100.00
14041;BME280;7095;51.388;6.196;2022-11-25T02:30:30;69908.38;;;-145.32;100.00
14041;BME280;7095;51.388;6.196;2022-11-25T02:32:59;70599.63;;;-145.32;100.00
14041;BME280;7095;51.388;6.196;2022-11-25T02:35:31;71442.94;;;-145.32;100.00
14041;BME280;7095;51.388;6.196;2022-11-25T02:38:07;72978.16;;;-145.32;100.00
14041;BME280;7095;51.388;6.196;2022-11-25T02:40:43;74002.03;;;-145.32;100.00
14041;BME280;7095;51.388;6.196;2022-11-25T02:43:13;74514.09;;;-145.32;100.00
14041;BME280;7095;51.388;6.196;2022-11-25T02:45:56;75026.22;;;-145.32;100.00
14041;BME280;7095;51.388;6.196;2022-11-25T02:48:27;75794.56;;;-145.32;100.00
14041;BME280;7095;51.388;6.196;2022-11-25T02:51:20;76819.28;;;-145.32;100.00
14041;BME280;7095;51.388;6.196;2022-11-25T02:53:49;78100.63;;;-145.32;100.00
14041;BME280;7095;51.388;6.196;2022-11-25T02:56:22;78356.94;;;-145.32;100.00
14041;BME280;7095;51.388;6.196;2022-11-25T02:58:52;79126.03;;;-145.32;100.00
14041;BME280;7095;51.388;6.196;2022-11-25T03:01:23;80664.72;;;-145.32;100.00
14041;BME280;7095;51.388;6.196;2022-11-25T03:03:52;80664.72;;;-145.32;100.00
14041;BME280;7095;51.388;6.196;2022-11-25T03:06:21;80921.25;;;-145.32;100.00
14041;BME280;7095;51.388;6.196;2022-11-25T03:08:52;81434.31;;;-145.32;100.00
14041;BME280;7095;51.388;6.196;2022-11-25T03:11:22;82204.09;;;-145.32;100.00
14041;BME280;7095;51.388;6.196;2022-11-25T03:14:12;83744.16;;;-145.32;100.00
14041;BME280;7095;51.388;6.196;2022-11-25T03:16:42;85284.91;;;-145.32;100.00
14041;BME280;7095;51.388;6.196;2022-11-25T03:19:11;85028.06;;;-145.32;100.00
14041;BME280;7095;51.388;6.196;2022-11-25T03:21:39;85798.66;;;-145.32;100.00
14041;BME280;7095;51.388;6.196;2022-11-25T03:24:08;86569.41;;;-145.32;100.00
14041;BME280;7095;51.388;6.196;2022-11-25T03:26:39;86055.56;;;-145.32;100.00
14041;BME280;7095;51.388;6.196;2022-11-25T03:29:07;86569.41;;;-145.32;100.00
14041;BME280;7095;51.388;6.196;2022-11-25T03:31:36;86312.47;;;-145.32;100.00
14041;BME280;7095;51.388;6.196;2022-11-25T03:34:09;86826.34;;;-145.32;100.00
14041;BME280;7095;51.388;6.196;2022-11-25T03:36:38;87854.38;;;-145.32;100.00
14041;BME280;7095;51.388;6.196;2022-11-25T03:39:07;88882.69;;;-145.32;100.00
14041;BME280;7095;51.388;6.196;2022-11-25T03:41:38;89139.81;;;-145.32;100.00
14041;BME280;7095;51.388;6.196;2022-11-25T03:44:07;89396.97;;;-145.32;100.00
14041;BME280;7095;51.388;6.196;2022-11-25T03:46:36;90168.50;;;-145.32;100.00
14041;BME280;7095;51.388;6.196;2022-11-25T03:49:06;91454.81;;;-145.32;100.00
14041;BME280;7095;51.388;6.196;2022-11-25T03:51:34;92741.59;;;-145.32;100.00
14041;BME280;7095;51.388;6.196;2022-11-25T03:54:04;92741.59;;;-145.32;100.00
14041;BME280;7095;51.388;6.196;2022-11-25T03:56:54;93256.44;;;-145.32;100.00
14041;BME280;7095;51.388;6.196;2022-11-25T03:59:26;94543.91;;;-145.32;100.00
14041;BME280;7095;51.388;6.196;2022-11-25T04:01:54;95059.00;;;-145.32;100.00
14041;BME280;7095;51.388;6.196;2022-11-25T04:04:23;95574.19;;;-145.32;100.00
14041;BME280;7095;51.388;6.196;2022-11-25T04:06:52;96347.13;;;-145.32;100.00
14041;BME280;7095;51.388;6.196;2022-11-25T04:09:21;96347.13;;;-145.32;100.00
14041;BME280;7095;51.388;6.196;2022-11-25T04:11:54;96604.81;;;-145.32;100.00
14041;BME280;7095;51.388;6.196;2022-11-25T04:14:54;97893.50;;;-145.32;100.00
14041;BME280;7095;51.388;6.196;2022-11-25T04:17:23;98151.31;;;-145.32;100.00
14041;BME280;7095;51.388;6.196;2022-11-25T04:19:51;98666.94;;;-145.32;100.00
14041;BME280;7095;51.388;6.196;2022-11-25T04:22:20;99182.69;;;-145.32;100.00
14041;BME280;7095;51.388;6.196;2022-11-25T04:24:50;99440.56;;;-145.32;100.00
14041;BME280;7095;51.388;6.196;2022-11-25T04:27:25;100214.34;;;-145.32;100.00
14041;BME280;7095;51.388;6.196;2022-11-25T04:29:54;100988.31;;;-145.32;100.00
14041;BME280;7095;51.388;6.196;2022-11-25T04:32:23;100988.31;;;-145.32;100.00
14041;BME280;7095;51.388;6.196;2022-11-25T04:34:53;101246.34;;;-145.32;100.00
14041;BME280;7095;51.388;6.196;2022-11-25T04:37:22;101246.34;;;-145.32;100.00
14041;BME280;7095;51.388;6.196;2022-11-25T04:39:53;101504.38;;;-145.32;100.00
14041;BME280;7095;51.388;6.196;2022-11-25T04:42:22;101762.47;;;-145.32;100.00
14041;BME280;7095;51.388;6.196;2022-11-25T04:45:06;102020.53;;;-145.32;100.00
14041;BME280;7095;51.388;6.196;2022-11-25T04:47:53;102020.53;;;-145.32;100.00
14041;BME280;7095;51.388;6.196;2022-11-25T04:50:23;102536.75;;;-145.32;100.00
14041;BME280;7095;51.388;6.196;2022-11-25T04:53:09;103569.44;;;-145.32;100.00
14041;BME280;7095;51.388;6.196;2022-11-25T04:55:39;103827.66;;;-145.32;100.00
14041;BME280;7095;51.388;6.196;2022-11-25T04:58:13;104085.91;;;-145.32;100.00
14041;BME280;7095;51.388;6.196;2022-11-25T05:01:05;104344.16;;;-145.32;100.00
14041;BME280;7095;51.388;6.196;2022-11-25T05:03:33;103827.66;;;-145.32;100.00
14041;BME280;7095;51.388;6.196;2022-11-25T05:06:05;103053.06;;;-145.32;100.00
14041;BME280;7095;51.388;6.196;2022-11-25T05:08:35;102536.75;;;-145.32;100.00
14041;BME280;7095;51.388;6.196;2022-11-25T05:11:04;102536.75;;;-145.32;100.00
14041;BME280;7095;51.388;6.196;2022-11-25T05:13:33;102536.75;;;-145.32;100.00
14041;BME280;7095;51.388;6.196;2022-11-25T05:16:02;103569.44;;;-145.32;100.00
14041;BME280;7095;51.388;6.196;2022-11-25T05:18:32;104085.91;;;-145.32;100.00
14041;BME280;7095;51.388;6.196;2022-11-25T05:21:01;104602.44;;;-145.32;100.00
14041;BME280;7095;51.388;6.196;2022-11-25T05:23:35;104860.72;;;-145.32;100.00
14041;BME280;7095;51.388;6.196;2022-11-25T05:26:04;104860.72;;;-145.32;100.00
14041;BME280;7095;51.388;6.196;2022-11-25T05:28:39;104860.72;;;-145.32;100.00
14041;BME280;7095;51.388;6.196;2022-11-25T05:31:10;104860.72;;;-145.32;100.00
14041;BME280;7095;51.388;6.196;2022-11-25T05:33:40;104860.72;;;-145.32;100.00
14041;BME280;7095;51.388;6.196;2022-11-25T05:36:10;104860.72;;;-145.32;100.00
14041;BME280;7095;51.388;6.196;2022-11-25T05:38:44;105119.03;;;-145.32;100.00
14041;BME280;7095;51.388;6.196;2022-11-25T05:41:19;105377.34;;;-145.32;100.00
14041;BME280;7095;51.388;6.196;2022-11-25T05:43:49;105377.34;;;-145.32;100.00
14041;BME280;7095;51.388;6.196;2022-11-25T05:46:18;105894.09;;;-145.32;100.00
14041;BME280;7095;51.388;6.196;2022-11-25T05:48:54;105894.09;;;-145.32;100.00
14041;BME280;7095;51.388;6.196;2022-11-25T05:51:23;105894.09;;;-145.32;100.00
14041;BME280;7095;51.388;6.196;2022-11-25T05:53:54;106410.88;;;-145.32;100.00
14041;BME280;7095;51.388;6.196;2022-11-25T05:56:27;106669.31;;;-145.32;100.00
14041;BME280;7095;51.388;6.196;2022-11-25T05:59:14;106927.75;;;-145.32;100.00
14041;BME280;7095;51.388;6.196;2022-11-25T06:01:57;106669.31;;;-145.32;100.00
14041;BME280;7095;51.388;6.196;2022-11-25T06:04:27;106410.88;;;-145.32;100.00
14041;BME280;7095;51.388;6.196;2022-11-25T06:06:56;106152.47;;;-145.32;100.00
14041;BME280;7095;51.388;6.196;2022-11-25T06:09:24;105894.09;;;-145.32;100.00
14041;BME280;7095;51.388;6.196;2022-11-25T06:11:54;105635.72;;;-145.32;100.00
14041;BME280;7095;51.388;6.196;2022-11-25T06:14:23;105635.72;;;-145.32;100.00
14041;BME280;7095;51.388;6.196;2022-11-25T06:16:52;105894.09;;;-145.32;100.00
14041;BME280;7095;51.388;6.196;2022-11-25T06:19:31;105635.72;;;-145.32;100.00
14041;BME280;7095;51.388;6.196;2022-11-25T06:21:59;105377.34;;;-145.32;100.00
14041;BME280;7095;51.388;6.196;2022-11-25T06:24:29;105119.03;;;-145.32;100.00
14041;BME280;7095;51.388;6.196;2022-11-25T06:27:03;104860.72;;;-145.32;100.00
14041;BME280;7095;51.388;6.196;2022-11-25T06:29:32;104344.16;;;-145.32;100.00
14041;BME280;7095;51.388;6.196;2022-11-25T06:32:02;104860.72;;;-145.32;100.00
14041;BME280;7095;51.388;6.196;2022-11-25T06:34:38;104602.44;;;-145.32;100.00
14041;BME280;7095;51.388;6.196;2022-11-25T06:37:27;104860.72;;;-145.32;100.00
14041;BME280;7095;51.388;6.196;2022-11-25T06:39:56;104602.44;;;-145.32;100.00
14041;BME280;7095;51.388;6.196;2022-11-25T06:42:25;104344.16;;;-145.32;100.00
14041;BME280;7095;51.388;6.196;2022-11-25T06:44:54;104344.16;;;-145.32;100.00
14041;BME280;7095;51.388;6.196;2022-11-25T06:47:22;103827.66;;;-145.32;100.00
14041;BME280;7095;51.388;6.196;2022-11-25T06:49:53;103827.66;;;-145.32;100.00
14041;BME280;7095;51.388;6.196;2022-11-25T06:52:22;104085.91;;;-145.32;100.00
14041;BME280;7095;51.388;6.196;2022-11-25T06:54:51;104602.44;;;-145.32;100.00
14041;BME280;7095;51.388;6.196;2022-11-25T06:57:20;103827.66;;;-145.32;100.00
14041;BME280;7095;51.388;6.196;2022-11-25T06:59:48;104344.16;;;-145.32;100.00
14041;BME280;7095;51.388;6.196;2022-11-25T07:02:17;103569.44;;;-145.32;100.00
14041;BME280;7095;51.388;6.196;2022-11-25T07:04:46;102794.91;;;-145.32;100.00
14041;BME280;7095;51.388;6.196;2022-11-25T07:07:16;102020.53;;;-145.32;100.00
14041;BME280;7095;51.388;6.196;2022-11-25T07:09:45;102020.53;;;-145.32;100.00
14041;BME280;7095;51.388;6.196;2022-11-25T07:12:14;103053.06;;;-145.32;100.00
14041;BME280;7095;51.388;6.196;2022-11-25T07:14:43;103827.66;;;-145.32;100.00
14041;BME280;7095;51.388;6.196;2022-11-25T07:17:12;103827.66;;;-145.32;100.00
14041;BME280;7095;51.388;6.196;2022-11-25T07:19:40;103311.25;;;-145.32;100.00
14041;BME280;7095;51.388;6.196;2022-11-25T07:22:09;103311.25;;;-145.32;100.00
14041;BME280;7095;51.388;6.196;2022-11-25T07:24:39;103569.44;;;-145.32;100.00
14041;BME280;7095;51.388;6.196;2022-11-25T07:27:07;103569.44;;;-145.32;100.00
14041;BME280;7095;51.388;6.196;2022-11-25T07:29:36;103827.66;;;-145.32;100.00
14041;BME280;7095;51.388;6.196;2022-11-25T07:32:24;103569.44;;;-145.32;100.00
14041;BME280;7095;51.388;6.196;2022-11-25T07:34:53;103311.25;;;-145.32;100.00
14041;BME280;7095;51.388;6.196;2022-11-25T07:37:22;103827.66;;;-145.32;100.00
14041;BME280;7095;51.388;6.196;2022-11-25T07:39:52;103569.44;;;-145.32;100.00
14041;BME280;7095;51.388;6.196;2022-11-25T07:42:21;103827.66;;;-145.32;100.00
14041;BME280;7095;51.388;6.196;2022-11-25T07:44:49;103569.44;;;-145.32;100.00
14041;BME280;7095;51.388;6.196;2022-11-25T07:47:40;104085.91;;;-145.32;100.00
14041;BME280;7095;51.388;6.196;2022-11-25T07:50:09;103569.44;;;-145.32;100.00
14041;BME280;7095;51.388;6.196;2022-11-25T07:52:38;103827.66;;;-145.32;100.00
14041;BME280;7095;51.388;6.196;2022-11-25T07:55:09;104344.16;;;-145.32;100.00
14041;BME280;7095;51.388;6.196;2022-11-25T07:57:38;104602.44;;;-145.32;100.00
14041;BME280;7095;51.388;6.196;2022-11-25T08:00:07;104344.16;;;-145.32;100.00
14041;BME280;7095;51.388;6.196;2022-11-25T08:02:39;104344.16;;;-145.32;100.00
14041;BME280;7095;51.388;6.196;2022-11-25T08:05:08;104602.44;;;-145.32;100.00
14041;BME280;7095;51.388;6.196;2022-11-25T08:07:37;104860.72;;;-145.32;100.00
14041;BME280;7095;51.388;6.196;2022-11-25T08:10:07;104860.72;;;-145.32;100.00
14041;BME280;7095;51.388;6.196;2022-11-25T08:12:37;105119.03;;;-145.32;100.00
14041;BME280;7095;51.388;6.196;2022-11-25T08:15:07;105377.34;;;-145.32;100.00
14041;BME280;7095;51.388;6.196;2022-11-25T08:17:36;105377.34;;;-145.32;100.00
14041;BME280;7095;51.388;6.196;2022-11-25T08:20:06;105894.09;;;-145.32;100.00
14041;BME280;7095;51.388;6.196;2022-11-25T08:22:36;105894.09;;;-145.32;100.00
14041;BME280;7095;51.388;6.196;2022-11-25T08:25:05;105377.34;;;-145.32;100.00
14041;BME280;7095;51.388;6.196;2022-11-25T08:27:34;105377.34;;;-145.32;100.00
14041;BME280;7095;51.388;6.196;2022-11-25T08:30:05;105377.34;;;-145.32;100.00
14041;BME280;7095;51.388;6.196;2022-11-25T08:32:36;105894.09;;;-145.32;100.00
14041;BME280;7095;51.388;6.196;2022-11-25T08:35:05;106152.47;;;-145.32;100.00
14041;BME280;7095;51.388;6.196;2022-11-25T08:37:34;105894.09;;;-145.32;100.00
14041;BME280;7095;51.388;6.196;2022-11-25T08:40:04;106410.88;;;-145.32;100.00
14041;BME280;7095;51.388;6.196;2022-11-25T08:42:33;106152.47;;;-145.32;100.00
14041;BME280;7095;51.388;6.196;2022-11-25T08:45:01;106410.88;;;-145.32;100.00
14041;BME280;7095;51.388;6.196;2022-11-25T08:47:31;106410.88;;;-145.32;100.00
14041;BME280;7095;51.388;6.196;2022-11-25T08:50:00;106152.47;;;-145.32;100.00
14041;BME280;7095;51.388;6.196;2022-11-25T08:52:28;105377.34;;;-145.32;100.00
14041;BME280;7095;51.388;6.196;2022-11-25T08:54:57;105119.03;;;-145.32;100.00
14041;BME280;7095;51.388;6.196;2022-11-25T08:57:26;104860.72;;;-145.32;100.00
14041;BME280;7095;51.388;6.196;2022-11-25T08:59:54;105119.03;;;-145.32;100.00
14041;BME280;7095;51.388;6.196;2022-11-25T09:02:23;105119.03;;;-145.32;100.00
14041;BME280;7095;51.388;6.196;2022-11-25T09:04:53;105894.09;;;-145.32;100.00
14041;BME280;7095;51.388;6.196;2022-11-25T09:07:22;106152.47;;;-145.32;100.00
14041;BME280;7095;51.388;6.196;2022-11-25T09:09:56;106152.47;;;-145.32;100.00
14041;BME280;7095;51.388;6.196;2022-11-25T09:12:25;106152.47;;;-145.32;100.00
14041;BME280;7095;51.388;6.196;2022-11-25T09:14:54;105894.09;;;-145.32;100.00
14041;BME280;7095;51.388;6.196;2022-11-25T09:17:23;105894.09;;;-145.32;100.00
14041;BME280;7095;51.388;6.196;2022-11-25T09:19:53;105377.34;;;-145.32;100.00
14041;BME280;7095;51.388;6.196;2022-11-25T09:22:22;105377.34;;;-145.32;100.00
14041;BME280;7095;51.388;6.196;2022-11-25T09:24:50;105119.03;;;-145.32;100.00
14041;BME280;7095;51.388;6.196;2022-11-25T09:27:19;104085.91;;;-145.32;100.00
14041;BME280;7095;51.388;6.196;2022-11-25T09:29:47;103827.66;;;-145.32;100.00
14041;BME280;7095;51.388;6.196;2022-11-25T09:32:16;102794.91;;;-145.32;100.00
14041;BME280;7095;51.388;6.196;2022-11-25T09:34:44;102278.66;;;-145.32;100.00
14041;BME280;7095;51.388;6.196;2022-11-25T09:37:14;102020.53;;;-145.32;100.00
14041;BME280;7095;51.388;6.196;2022-11-25T09:39:43;100472.31;;;-145.32;100.00
14041;BME280;7095;51.388;6.196;2022-11-25T09:42:24;100730.31;;;-145.32;100.00
14041;BME280;7095;51.388;6.196;2022-11-25T09:45:16;99698.47;;;-145.32;100.00
14041;BME280;7095;51.388;6.196;2022-11-25T09:48:16;99182.69;;;-145.32;100.00
14041;BME280;7095;51.388;6.196;2022-11-25T09:50:56;99182.69;;;-145.32;100.00
14041;BME280;7095;51.388;6.196;2022-11-25T09:53:41;98151.31;;;-145.32;100.00
14041;BME280;7095;51.388;6.196;2022-11-25T09:56:16;97120.22;;;-145.32;100.00
14041;BME280;7095;51.388;6.196;2022-11-25T09:58:50;96862.50;;;-145.32;100.00
14041;BME280;7095;51.388;6.196;2022-11-25T10:01:22;97893.50;;;-145.32;100.00
14041;BME280;7095;51.388;6.196;2022-11-25T10:03:55;97635.72;;;-145.32;100.00
14041;BME280;7095;51.388;6.196;2022-11-25T10:06:27;96862.50;;;-145.32;100.00
14041;BME280;7095;51.388;6.196;2022-11-25T10:09:00;95316.59;;;-145.32;100.00
14041;BME280;7095;51.388;6.196;2022-11-25T10:11:39;95316.59;;;-145.32;100.00
14041;BME280;7095;51.388;6.196;2022-11-25T10:14:15;95059.00;;;-145.32;100.00
14041;BME280;7095;51.388;6.196;2022-11-25T10:16:49;94543.91;;;-145.32;100.00
14041;BME280;7095;51.388;6.196;2022-11-25T10:19:25;91969.47;;;-145.32;100.00
14041;BME280;7095;51.388;6.196;2022-11-25T10:22:01;93256.44;;;-145.32;100.00
14041;BME280;7095;51.388;6.196;2022-11-25T10:24:40;94028.84;;;-145.32;100.00
14041;BME280;7095;51.388;6.196;2022-11-25T10:27:14;91454.81;;;-145.32;100.00
14041;BME280;7095;51.388;6.196;2022-11-25T10:29:48;90425.72;;;-145.32;100.00
14041;BME280;7095;51.388;6.196;2022-11-25T10:32:25;91712.13;;;-145.32;100.00
14041;BME280;7095;51.388;6.196;2022-11-25T10:34:57;91969.47;;;-145.32;100.00
14041;BME280;7095;51.388;6.196;2022-11-25T10:37:30;88625.56;;;-145.32;100.00
14041;BME280;7095;51.388;6.196;2022-11-25T10:40:02;88625.56;;;-145.32;100.00
14041;BME280;7095;51.388;6.196;2022-11-25T10:42:31;89396.97;;;-145.32;100.00
14041;BME280;7095;51.388;6.196;2022-11-25T10:45:03;88625.56;;;-145.32;100.00
14041;BME280;7095;51.388;6.196;2022-11-25T10:47:36;87854.38;;;-145.32;100.00
14041;BME280;7095;51.388;6.196;2022-11-25T10:50:16;84514.44;;;-145.32;100.00
14041;BME280;7095;51.388;6.196;2022-11-25T10:52:49;84000.91;;;-145.32;100.00
14041;BME280;7095;51.388;6.196;2022-11-25T10:55:24;85541.78;;;-145.32;100.00
14041;BME280;7095;51.388;6.196;2022-11-25T10:57:53;76306.91;;;-145.32;100.00
14041;BME280;7095;51.388;6.196;2022-11-25T11:00:39;75538.44;;;-145.32;100.00
14041;BME280;7095;51.388;6.196;2022-11-25T11:03:13;75794.56;;;-145.32;100.00
14041;BME280;7095;51.388;6.196;2022-11-25T11:05:45;77588.03;;;-145.32;100.00
14041;BME280;7095;51.388;6.196;2022-11-25T11:08:19;79126.03;;;-145.32;100.00
14041;BME280;7095;51.388;6.196;2022-11-25T11:11:13;76819.28;;;-145.32;100.00
14041;BME280;7095;51.388;6.196;2022-11-25T11:13:43;76050.72;;;-145.32;100.00
14041;BME280;7095;51.388;6.196;2022-11-25T11:16:25;77588.03;;;-145.32;100.00
14041;BME280;7095;51.388;6.196;2022-11-25T11:18:56;70471.75;;;-145.32;100.00
14041;BME280;7095;51.388;6.196;2022-11-25T11:21:31;68410.44;;;-145.32;100.00
14041;BME280;7095;51.388;6.196;2022-11-25T11:24:01;67933.25;;;-145.32;100.00
14041;BME280;7095;51.388;6.196;2022-11-25T11:26:33;65300.84;;;-145.32;100.00
14041;BME280;7095;51.388;6.196;2022-11-25T11:29:10;66837.31;;;-145.32;100.00
14041;BME280;7095;51.388;6.196;2022-11-25T11:31:45;66805.41;;;-145.32;100.00
14041;BME280;7095;51.388;6.196;2022-11-25T11:34:29;60486.38;;;-145.32;100.00
14041;BME280;7095;51.388;6.196;2022-11-25T11:37:16;59384.91;;;-145.32;100.00
14041;BME280;7095;51.388;6.196;2022-11-25T11:40:02;59866.88;;;-145.32;100.00
14041;BME280;7095;51.388;6.196;2022-11-25T11:42:44;59432.69;;;-145.32;100.00
14041;BME280;7095;51.388;6.196;2022-11-25T11:45:34;58938.81;;;-145.32;100.00
14041;BME280;7095;51.388;6.196;2022-11-25T11:48:10;58512.72;;;-145.32;100.00
14041;BME280;7095;51.388;6.196;2022-11-25T11:50:44;58731.75;;;-145.32;100.00
14041;BME280;7095;51.388;6.196;2022-11-25T11:53:27;58395.25;;;-145.32;100.00
14041;BME280;7095;51.388;6.196;2022-11-25T11:56:03;58150.38;;;-145.32;100.00
14041;BME280;7095;51.388;6.196;2022-11-25T11:59:06;57628.84;;;-145.32;100.00
14041;BME280;7095;51.388;6.196;2022-11-25T12:01:46;57672.63;;;-145.32;100.00
14041;BME280;7095;51.388;6.196;2022-11-25T12:04:21;57099.41;;;-145.32;100.00
14041;BME280;7095;51.388;6.196;2022-11-25T12:06:59;56546.19;;;-145.32;100.00
14041;BME280;7095;51.388;6.196;2022-11-25T12:09:31;56721.28;;;-145.32;100.00
14041;BME280;7095;51.388;6.196;2022-11-25T12:12:05;56462.59;;;-145.32;100.00
14041;BME280;7095;51.388;6.196;2022-11-25T12:14:42;56307.41;;;-145.32;100.00
14041;BME280;7095;51.388;6.196;2022-11-25T12:17:16;56028.84;;;-145.32;100.00
14041;BME280;7095;51.388;6.196;2022-11-25T12:19:54;55863.72;;;-145.32;100.00
14041;BME280;7095;51.388;6.196;2022-11-25T12:22:26;55901.53;;;-145.32;100.00
14041;BME280;7095;51.388;6.196;2022-11-25T12:25:02;55997.03;;;-145.32;100.00
14041;BME280;7095;51.388;6.196;2022-11-25T12:27:34;55682.69;;;-145.32;100.00
14041;BME280;7095;51.388;6.196;2022-11-25T12:30:07;55543.44;;;-145.32;100.00
14041;BME280;7095;51.388;6.196;2022-11-25T12:32:48;55455.91;;;-145.32;100.00
14041;BME280;7095;51.388;6.196;2022-11-25T12:35:30;55284.84;;;-145.32;100.00
14041;BME280;7095;51.388;6.196;2022-11-25T12:38:04;55022.31;;;-145.32;100.00
14041;BME280;7095;51.388;6.196;2022-11-25T12:40:43;55191.38;;;-145.32;100.00
14041;BME280;7095;51.388;6.196;2022-11-25T12:43:23;54950.69;;;-145.32;100.00
14041;BME280;7095;51.388;6.196;2022-11-25T12:46:03;54881.09;;;-145.32;100.00
14041;BME280;7095;51.388;6.196;2022-11-25T12:48:37;54938.75;;;-145.32;100.00
14041;BME280;7095;51.388;6.196;2022-11-25T12:51:16;54875.13;;;-145.32;100.00
14041;BME280;7095;51.388;6.196;2022-11-25T12:53:54;54879.09;;;-145.32;100.00
14041;BME280;7095;51.388;6.196;2022-11-25T12:56:45;54660.31;;;-145.32;100.00
14041;BME280;7095;51.388;6.196;2022-11-25T12:59:42;54634.47;;;-145.32;100.00
14041;BME280;7095;51.388;6.196;2022-11-25T13:02:41;54632.50;;;-145.32;100.00
14041;BME280;7095;51.388;6.196;2022-11-25T13:05:43;54501.22;;;-145.32;100.00